KAVL/AVL METAR and TAF weather

Enter ICAO airport designator
Station Type Date Time Source
KAVL METAR 2020/03/31 08:54 UTC NOAA

KAVL 310854Z AUTO 36005KT 10SM BKN080 OVC110 12/M02 A2995 RMK AO2 SLP126 T01221017 56005 $


Station Type Date Time Source
KAVL Decoded METAR 2020/03/31 08:54 UTC NOAA

ASHEVILLE REGIONAL AIRPORT, NC, United States (KAVL) 35-26N 82-32W 670M
Mar 31, 2020 - 04:54 AM EDT / 2020.03.31 0854 UTC
Wind: from the N (360 degrees) at 6 MPH (5 KT):0
Visibility: 10 mile(s):0
Sky conditions: overcast
Temperature: 54.0 F (12.2 C)
Dew Point: 28.9 F (-1.7 C)
Relative Humidity: 37%
Pressure (altimeter): 29.95 in. Hg (1014 hPa)
Pressure tendency: 0.01 inches (0.5 hPa) lower than three hours ago
ob: KAVL 310854Z AUTO 36005KT 10SM BKN080 OVC110 12/M02 A2995 RMK AO2 SLP126 T01221017 56005
cycle: 9

Station Type Date Time Source
KAVL TAF 2020/03/31 06:33 UTC NOAA

TAF KAVL 310531Z 3106/0106 34007KT P6SM SCT250
FM310900 36004KT P6SM VCSH SCT050 OVC090
TEMPO 3110/3114 5SM -SHRA BR OVC025
FM311400 03011KT P6SM -SHRA BKN025 OVC060
FM311700 35009KT 3SM -SHRA BR OVC009
FM010200 34011G18KT 6SM -RA BR OVC015

Example: see airport list